sensor_id;sensor_type;location;lat;lon;timestamp;P1;durP1;ratioP1;P2;durP2;ratioP2
23782;SDS011;12071;50.850;4.446;2023-11-21T00:01:17;63.08;;;25.27;;
23782;SDS011;12071;50.850;4.446;2023-11-21T00:03:43;61.05;;;26.33;;
23782;SDS011;12071;50.850;4.446;2023-11-21T00:06:09;70.75;;;28.10;;
23782;SDS011;12071;50.850;4.446;2023-11-21T00:08:35;72.88;;;29.27;;
23782;SDS011;12071;50.850;4.446;2023-11-21T00:11:01;65.30;;;26.80;;
23782;SDS011;12071;50.850;4.446;2023-11-21T00:13:27;62.83;;;27.33;;
23782;SDS011;12071;50.850;4.446;2023-11-21T00:15:53;69.85;;;26.20;;
23782;SDS011;12071;50.850;4.446;2023-11-21T00:18:18;66.15;;;27.88;;
23782;SDS011;12071;50.850;4.446;2023-11-21T00:20:44;68.43;;;28.05;;
23782;SDS011;12071;50.850;4.446;2023-11-21T00:23:10;75.38;;;28.27;;
23782;SDS011;12071;50.850;4.446;2023-11-21T00:25:35;71.72;;;28.23;;
23782;SDS011;12071;50.850;4.446;2023-11-21T00:28:01;73.20;;;28.90;;
23782;SDS011;12071;50.850;4.446;2023-11-21T00:30:28;74.07;;;29.42;;
23782;SDS011;12071;50.850;4.446;2023-11-21T00:32:54;71.55;;;28.85;;
23782;SDS011;12071;50.850;4.446;2023-11-21T00:35:20;78.15;;;29.08;;
23782;SDS011;12071;50.850;4.446;2023-11-21T00:37:46;67.28;;;27.70;;
23782;SDS011;12071;50.850;4.446;2023-11-21T00:40:12;72.82;;;28.25;;
23782;SDS011;12071;50.850;4.446;2023-11-21T00:42:38;74.28;;;27.85;;
23782;SDS011;12071;50.850;4.446;2023-11-21T00:45:04;74.72;;;29.00;;
23782;SDS011;12071;50.850;4.446;2023-11-21T00:47:31;71.53;;;27.55;;
23782;SDS011;12071;50.850;4.446;2023-11-21T00:49:56;75.43;;;27.90;;
23782;SDS011;12071;50.850;4.446;2023-11-21T00:52:22;77.40;;;28.08;;
23782;SDS011;12071;50.850;4.446;2023-11-21T00:54:48;83.43;;;29.73;;
23782;SDS011;12071;50.850;4.446;2023-11-21T00:57:14;83.93;;;30.08;;
23782;SDS011;12071;50.850;4.446;2023-11-21T00:59:40;79.32;;;30.40;;
23782;SDS011;12071;50.850;4.446;2023-11-21T01:02:05;84.85;;;30.30;;
23782;SDS011;12071;50.850;4.446;2023-11-21T01:04:35;86.18;;;30.77;;
23782;SDS011;12071;50.850;4.446;2023-11-21T01:07:01;81.93;;;30.25;;
23782;SDS011;12071;50.850;4.446;2023-11-21T01:09:26;85.80;;;31.15;;
23782;SDS011;12071;50.850;4.446;2023-11-21T01:11:53;92.07;;;31.92;;
23782;SDS011;12071;50.850;4.446;2023-11-21T01:14:18;98.10;;;33.50;;
23782;SDS011;12071;50.850;4.446;2023-11-21T01:16:44;93.90;;;33.63;;
23782;SDS011;12071;50.850;4.446;2023-11-21T01:19:10;96.25;;;34.15;;
23782;SDS011;12071;50.850;4.446;2023-11-21T01:21:35;93.70;;;32.88;;
23782;SDS011;12071;50.850;4.446;2023-11-21T01:24:01;100.03;;;35.75;;
23782;SDS011;12071;50.850;4.446;2023-11-21T01:26:27;101.97;;;35.65;;
23782;SDS011;12071;50.850;4.446;2023-11-21T01:28:53;93.35;;;35.55;;
23782;SDS011;12071;50.850;4.446;2023-11-21T01:31:19;100.72;;;36.00;;
23782;SDS011;12071;50.850;4.446;2023-11-21T01:33:45;94.75;;;34.42;;
23782;SDS011;12071;50.850;4.446;2023-11-21T01:36:11;91.93;;;34.95;;
23782;SDS011;12071;50.850;4.446;2023-11-21T01:38:37;100.05;;;35.42;;
23782;SDS011;12071;50.850;4.446;2023-11-21T01:41:02;88.85;;;35.38;;
23782;SDS011;12071;50.850;4.446;2023-11-21T01:43:29;100.97;;;36.60;;
23782;SDS011;12071;50.850;4.446;2023-11-21T01:45:57;90.88;;;35.22;;
23782;SDS011;12071;50.850;4.446;2023-11-21T01:48:23;87.50;;;34.67;;
23782;SDS011;12071;50.850;4.446;2023-11-21T01:50:51;96.97;;;34.80;;
23782;SDS011;12071;50.850;4.446;2023-11-21T01:53:17;84.45;;;34.65;;
23782;SDS011;12071;50.850;4.446;2023-11-21T01:55:43;84.03;;;34.13;;
23782;SDS011;12071;50.850;4.446;2023-11-21T01:58:11;76.97;;;33.72;;
23782;SDS011;12071;50.850;4.446;2023-11-21T02:00:37;79.88;;;33.72;;
23782;SDS011;12071;50.850;4.446;2023-11-21T02:03:03;76.95;;;32.92;;
23782;SDS011;12071;50.850;4.446;2023-11-21T02:05:32;80.75;;;33.78;;
23782;SDS011;12071;50.850;4.446;2023-11-21T02:07:57;77.32;;;33.65;;
23782;SDS011;12071;50.850;4.446;2023-11-21T02:10:23;68.43;;;30.85;;
23782;SDS011;12071;50.850;4.446;2023-11-21T02:12:49;76.38;;;33.13;;
23782;SDS011;12071;50.850;4.446;2023-11-21T02:15:15;69.35;;;30.83;;
23782;SDS011;12071;50.850;4.446;2023-11-21T02:17:45;74.00;;;32.13;;
23782;SDS011;12071;50.850;4.446;2023-11-21T02:20:12;73.20;;;31.55;;
23782;SDS011;12071;50.850;4.446;2023-11-21T02:22:42;64.95;;;30.45;;
23782;SDS011;12071;50.850;4.446;2023-11-21T02:25:10;69.63;;;30.45;;
23782;SDS011;12071;50.850;4.446;2023-11-21T02:27:36;74.30;;;32.05;;
23782;SDS011;12071;50.850;4.446;2023-11-21T02:30:03;74.70;;;31.67;;
23782;SDS011;12071;50.850;4.446;2023-11-21T02:32:30;73.65;;;32.80;;
23782;SDS011;12071;50.850;4.446;2023-11-21T02:34:56;71.53;;;30.25;;
23782;SDS011;12071;50.850;4.446;2023-11-21T02:37:26;66.40;;;31.17;;
23782;SDS011;12071;50.850;4.446;2023-11-21T02:39:52;70.80;;;30.75;;
23782;SDS011;12071;50.850;4.446;2023-11-21T02:42:18;72.25;;;29.42;;
23782;SDS011;12071;50.850;4.446;2023-11-21T02:44:43;69.63;;;29.23;;
23782;SDS011;12071;50.850;4.446;2023-11-21T02:47:09;60.05;;;26.02;;
23782;SDS011;12071;50.850;4.446;2023-11-21T02:49:35;56.75;;;25.88;;
23782;SDS011;12071;50.850;4.446;2023-11-21T02:52:01;58.38;;;27.08;;
23782;SDS011;12071;50.850;4.446;2023-11-21T02:54:27;60.00;;;26.40;;
23782;SDS011;12071;50.850;4.446;2023-11-21T02:56:52;64.55;;;28.25;;
23782;SDS011;12071;50.850;4.446;2023-11-21T02:59:18;66.78;;;28.15;;
23782;SDS011;12071;50.850;4.446;2023-11-21T03:01:44;65.55;;;26.83;;
23782;SDS011;12071;50.850;4.446;2023-11-21T03:04:11;65.00;;;27.70;;
23782;SDS011;12071;50.850;4.446;2023-11-21T03:06:42;58.55;;;26.33;;
23782;SDS011;12071;50.850;4.446;2023-11-21T03:09:09;53.45;;;25.27;;
23782;SDS011;12071;50.850;4.446;2023-11-21T03:11:34;54.60;;;25.08;;
23782;SDS011;12071;50.850;4.446;2023-11-21T03:14:00;56.28;;;24.80;;
23782;SDS011;12071;50.850;4.446;2023-11-21T03:16:26;57.22;;;24.27;;
23782;SDS011;12071;50.850;4.446;2023-11-21T03:18:51;59.70;;;24.45;;
23782;SDS011;12071;50.850;4.446;2023-11-21T03:21:17;50.15;;;23.33;;
23782;SDS011;12071;50.850;4.446;2023-11-21T03:23:43;48.75;;;22.73;;
23782;SDS011;12071;50.850;4.446;2023-11-21T03:26:11;51.72;;;23.45;;
23782;SDS011;12071;50.850;4.446;2023-11-21T03:28:38;49.25;;;22.75;;
23782;SDS011;12071;50.850;4.446;2023-11-21T03:31:04;51.33;;;23.75;;
23782;SDS011;12071;50.850;4.446;2023-11-21T03:33:31;51.28;;;22.48;;
23782;SDS011;12071;50.850;4.446;2023-11-21T03:35:57;49.13;;;24.30;;
23782;SDS011;12071;50.850;4.446;2023-11-21T03:38:23;52.22;;;23.80;;
23782;SDS011;12071;50.850;4.446;2023-11-21T03:40:48;56.80;;;25.80;;
23782;SDS011;12071;50.850;4.446;2023-11-21T03:43:15;60.28;;;26.08;;
23782;SDS011;12071;50.850;4.446;2023-11-21T03:45:43;64.13;;;25.45;;
23782;SDS011;12071;50.850;4.446;2023-11-21T03:48:09;58.20;;;25.65;;
23782;SDS011;12071;50.850;4.446;2023-11-21T03:50:37;53.92;;;24.55;;
23782;SDS011;12071;50.850;4.446;2023-11-21T03:53:03;54.83;;;24.50;;
23782;SDS011;12071;50.850;4.446;2023-11-21T03:55:29;58.00;;;24.17;;
23782;SDS011;12071;50.850;4.446;2023-11-21T03:57:57;57.63;;;23.92;;
23782;SDS011;12071;50.850;4.446;2023-11-21T04:00:23;60.58;;;24.38;;
23782;SDS011;12071;50.850;4.446;2023-11-21T04:02:49;59.70;;;24.10;;
23782;SDS011;12071;50.850;4.446;2023-11-21T04:05:16;58.50;;;24.25;;
23782;SDS011;12071;50.850;4.446;2023-11-21T04:07:42;53.47;;;23.77;;
23782;SDS011;12071;50.850;4.446;2023-11-21T04:10:08;53.47;;;23.42;;
23782;SDS011;12071;50.850;4.446;2023-11-21T04:12:35;56.33;;;23.45;;
23782;SDS011;12071;50.850;4.446;2023-11-21T04:15:01;53.88;;;23.25;;
23782;SDS011;12071;50.850;4.446;2023-11-21T04:17:28;53.05;;;24.17;;
23782;SDS011;12071;50.850;4.446;2023-11-21T04:19:54;51.78;;;24.27;;
23782;SDS011;12071;50.850;4.446;2023-11-21T04:22:19;57.50;;;25.27;;
23782;SDS011;12071;50.850;4.446;2023-11-21T04:24:45;55.08;;;23.40;;
23782;SDS011;12071;50.850;4.446;2023-11-21T04:27:10;57.22;;;24.00;;
23782;SDS011;12071;50.850;4.446;2023-11-21T04:29:36;55.22;;;23.25;;
23782;SDS011;12071;50.850;4.446;2023-11-21T04:32:02;57.72;;;23.50;;
23782;SDS011;12071;50.850;4.446;2023-11-21T04:34:28;48.00;;;21.85;;
23782;SDS011;12071;50.850;4.446;2023-11-21T04:36:56;54.05;;;22.92;;
23782;SDS011;12071;50.850;4.446;2023-11-21T04:39:22;50.75;;;22.60;;
23782;SDS011;12071;50.850;4.446;2023-11-21T04:41:47;54.67;;;23.40;;
23782;SDS011;12071;50.850;4.446;2023-11-21T04:44:13;55.00;;;23.77;;
23782;SDS011;12071;50.850;4.446;2023-11-21T04:46:39;60.88;;;25.23;;
23782;SDS011;12071;50.850;4.446;2023-11-21T04:49:05;58.45;;;24.88;;
23782;SDS011;12071;50.850;4.446;2023-11-21T04:51:30;57.20;;;25.15;;
23782;SDS011;12071;50.850;4.446;2023-11-21T04:53:57;57.60;;;26.70;;
23782;SDS011;12071;50.850;4.446;2023-11-21T04:56:23;66.70;;;30.08;;
23782;SDS011;12071;50.850;4.446;2023-11-21T04:58:49;72.75;;;29.73;;
23782;SDS011;12071;50.850;4.446;2023-11-21T05:01:15;66.28;;;29.08;;
23782;SDS011;12071;50.850;4.446;2023-11-21T05:03:41;70.20;;;30.25;;
23782;SDS011;12071;50.850;4.446;2023-11-21T05:06:09;64.15;;;30.60;;
23782;SDS011;12071;50.850;4.446;2023-11-21T05:08:35;69.65;;;31.85;;
23782;SDS011;12071;50.850;4.446;2023-11-21T05:11:02;70.40;;;30.60;;
23782;SDS011;12071;50.850;4.446;2023-11-21T05:13:28;67.97;;;30.85;;
23782;SDS011;12071;50.850;4.446;2023-11-21T05:15:56;68.97;;;30.13;;
23782;SDS011;12071;50.850;4.446;2023-11-21T05:18:23;64.93;;;30.33;;
23782;SDS011;12071;50.850;4.446;2023-11-21T05:20:52;65.15;;;30.63;;
23782;SDS011;12071;50.850;4.446;2023-11-21T05:23:18;67.72;;;30.77;;
23782;SDS011;12071;50.850;4.446;2023-11-21T05:25:44;63.78;;;30.45;;
23782;SDS011;12071;50.850;4.446;2023-11-21T05:28:11;68.25;;;30.85;;
23782;SDS011;12071;50.850;4.446;2023-11-21T05:30:37;65.18;;;28.80;;
23782;SDS011;12071;50.850;4.446;2023-11-21T05:33:05;68.85;;;29.38;;
23782;SDS011;12071;50.850;4.446;2023-11-21T05:35:31;69.13;;;30.92;;
23782;SDS011;12071;50.850;4.446;2023-11-21T05:37:56;63.50;;;31.00;;
23782;SDS011;12071;50.850;4.446;2023-11-21T05:40:23;60.83;;;29.92;;
23782;SDS011;12071;50.850;4.446;2023-11-21T05:42:51;66.35;;;31.65;;
23782;SDS011;12071;50.850;4.446;2023-11-21T05:45:17;65.22;;;31.02;;
23782;SDS011;12071;50.850;4.446;2023-11-21T05:47:44;71.53;;;33.65;;
23782;SDS011;12071;50.850;4.446;2023-11-21T05:50:14;67.80;;;32.50;;
23782;SDS011;12071;50.850;4.446;2023-11-21T05:52:41;59.70;;;32.40;;
23782;SDS011;12071;50.850;4.446;2023-11-21T05:55:08;63.03;;;32.70;;
23782;SDS011;12071;50.850;4.446;2023-11-21T05:57:34;65.35;;;32.20;;
23782;SDS011;12071;50.850;4.446;2023-11-21T06:00:02;67.22;;;31.42;;
23782;SDS011;12071;50.850;4.446;2023-11-21T06:02:56;63.92;;;31.00;;
23782;SDS011;12071;50.850;4.446;2023-11-21T06:05:23;69.50;;;30.50;;
23782;SDS011;12071;50.850;4.446;2023-11-21T06:07:50;61.33;;;31.50;;
23782;SDS011;12071;50.850;4.446;2023-11-21T06:10:19;65.63;;;31.88;;
23782;SDS011;12071;50.850;4.446;2023-11-21T06:12:45;56.22;;;32.45;;
23782;SDS011;12071;50.850;4.446;2023-11-21T06:15:11;63.75;;;30.90;;
23782;SDS011;12071;50.850;4.446;2023-11-21T06:17:38;60.00;;;30.23;;
23782;SDS011;12071;50.850;4.446;2023-11-21T06:20:05;63.10;;;29.10;;
23782;SDS011;12071;50.850;4.446;2023-11-21T06:22:40;53.33;;;28.15;;
23782;SDS011;12071;50.850;4.446;2023-11-21T06:25:07;54.85;;;30.33;;
23782;SDS011;12071;50.850;4.446;2023-11-21T06:27:34;55.22;;;28.80;;
23782;SDS011;12071;50.850;4.446;2023-11-21T06:32:32;58.17;;;29.65;;
23782;SDS011;12071;50.850;4.446;2023-11-21T06:34:58;67.65;;;30.35;;
23782;SDS011;12071;50.850;4.446;2023-11-21T06:37:27;61.53;;;30.00;;
23782;SDS011;12071;50.850;4.446;2023-11-21T06:39:53;62.60;;;31.98;;
23782;SDS011;12071;50.850;4.446;2023-11-21T06:42:20;62.50;;;31.50;;
23782;SDS011;12071;50.850;4.446;2023-11-21T06:44:46;62.25;;;31.90;;
23782;SDS011;12071;50.850;4.446;2023-11-21T06:47:12;59.35;;;31.35;;
23782;SDS011;12071;50.850;4.446;2023-11-21T06:49:37;64.50;;;31.48;;
23782;SDS011;12071;50.850;4.446;2023-11-21T06:52:03;65.10;;;31.88;;
23782;SDS011;12071;50.850;4.446;2023-11-21T06:54:30;57.50;;;31.10;;
23782;SDS011;12071;50.850;4.446;2023-11-21T06:56:56;56.10;;;29.20;;
23782;SDS011;12071;50.850;4.446;2023-11-21T06:59:23;58.40;;;28.75;;
23782;SDS011;12071;50.850;4.446;2023-11-21T07:01:49;52.58;;;28.65;;
23782;SDS011;12071;50.850;4.446;2023-11-21T07:04:15;62.13;;;29.95;;
23782;SDS011;12071;50.850;4.446;2023-11-21T07:06:40;58.58;;;30.02;;
23782;SDS011;12071;50.850;4.446;2023-11-21T07:09:06;52.15;;;30.08;;
23782;SDS011;12071;50.850;4.446;2023-11-21T07:11:33;55.33;;;30.80;;
23782;SDS011;12071;50.850;4.446;2023-11-21T07:13:59;59.95;;;31.52;;
23782;SDS011;12071;50.850;4.446;2023-11-21T07:16:31;57.88;;;29.98;;
23782;SDS011;12071;50.850;4.446;2023-11-21T07:19:00;58.97;;;30.95;;
23782;SDS011;12071;50.850;4.446;2023-11-21T07:21:25;54.00;;;29.70;;
23782;SDS011;12071;50.850;4.446;2023-11-21T07:23:51;58.10;;;31.48;;
23782;SDS011;12071;50.850;4.446;2023-11-21T07:26:17;57.00;;;29.48;;
23782;SDS011;12071;50.850;4.446;2023-11-21T07:28:42;51.03;;;30.35;;
23782;SDS011;12071;50.850;4.446;2023-11-21T07:31:08;60.33;;;29.88;;
23782;SDS011;12071;50.850;4.446;2023-11-21T07:33:33;57.25;;;29.33;;
23782;SDS011;12071;50.850;4.446;2023-11-21T07:35:59;51.25;;;29.25;;
23782;SDS011;12071;50.850;4.446;2023-11-21T07:38:25;53.17;;;28.80;;
23782;SDS011;12071;50.850;4.446;2023-11-21T07:40:53;50.53;;;27.98;;
23782;SDS011;12071;50.850;4.446;2023-11-21T07:43:18;54.83;;;29.15;;
23782;SDS011;12071;50.850;4.446;2023-11-21T07:45:44;49.90;;;27.65;;
23782;SDS011;12071;50.850;4.446;2023-11-21T07:48:10;55.38;;;28.92;;
23782;SDS011;12071;50.850;4.446;2023-11-21T07:50:36;56.38;;;29.15;;
23782;SDS011;12071;50.850;4.446;2023-11-21T07:53:01;55.88;;;28.63;;
23782;SDS011;12071;50.850;4.446;2023-11-21T07:55:30;54.65;;;30.08;;
23782;SDS011;12071;50.850;4.446;2023-11-21T07:57:57;51.08;;;28.95;;
23782;SDS011;12071;50.850;4.446;2023-11-21T08:00:22;53.00;;;29.35;;
23782;SDS011;12071;50.850;4.446;2023-11-21T08:02:49;54.70;;;29.02;;
23782;SDS011;12071;50.850;4.446;2023-11-21T08:05:15;55.10;;;29.30;;
23782;SDS011;12071;50.850;4.446;2023-11-21T08:07:41;54.08;;;29.02;;
23782;SDS011;12071;50.850;4.446;2023-11-21T08:10:07;52.38;;;28.92;;
23782;SDS011;12071;50.850;4.446;2023-11-21T08:12:35;54.42;;;28.35;;
23782;SDS011;12071;50.850;4.446;2023-11-21T08:15:01;62.90;;;30.80;;
23782;SDS011;12071;50.850;4.446;2023-11-21T08:17:28;53.90;;;30.05;;
23782;SDS011;12071;50.850;4.446;2023-11-21T08:19:54;62.53;;;31.30;;
23782;SDS011;12071;50.850;4.446;2023-11-21T08:22:20;62.97;;;31.38;;
23782;SDS011;12071;50.850;4.446;2023-11-21T08:24:46;65.95;;;31.50;;
23782;SDS011;12071;50.850;4.446;2023-11-21T08:27:12;62.67;;;32.00;;
23782;SDS011;12071;50.850;4.446;2023-11-21T08:29:40;59.85;;;30.48;;
23782;SDS011;12071;50.850;4.446;2023-11-21T08:32:07;62.63;;;30.77;;
23782;SDS011;12071;50.850;4.446;2023-11-21T08:34:32;62.03;;;30.10;;
23782;SDS011;12071;50.850;4.446;2023-11-21T08:36:58;58.17;;;29.85;;
23782;SDS011;12071;50.850;4.446;2023-11-21T08:39:24;62.10;;;29.30;;
23782;SDS011;12071;50.850;4.446;2023-11-21T08:41:50;58.85;;;28.75;;
23782;SDS011;12071;50.850;4.446;2023-11-21T08:44:16;56.22;;;27.77;;
23782;SDS011;12071;50.850;4.446;2023-11-21T08:46:43;53.50;;;27.80;;
23782;SDS011;12071;50.850;4.446;2023-11-21T08:49:11;57.13;;;27.73;;
23782;SDS011;12071;50.850;4.446;2023-11-21T08:51:37;64.07;;;29.92;;
23782;SDS011;12071;50.850;4.446;2023-11-21T08:54:04;63.50;;;29.08;;
23782;SDS011;12071;50.850;4.446;2023-11-21T08:56:33;66.25;;;29.23;;
23782;SDS011;12071;50.850;4.446;2023-11-21T08:59:00;72.57;;;31.25;;
23782;SDS011;12071;50.850;4.446;2023-11-21T09:01:27;71.68;;;31.70;;
23782;SDS011;12071;50.850;4.446;2023-11-21T09:03:53;65.95;;;30.52;;
23782;SDS011;12071;50.850;4.446;2023-11-21T09:06:20;64.60;;;31.15;;
23782;SDS011;12071;50.850;4.446;2023-11-21T09:08:46;71.22;;;30.73;;
23782;SDS011;12071;50.850;4.446;2023-11-21T09:11:12;78.50;;;31.33;;
23782;SDS011;12071;50.850;4.446;2023-11-21T09:13:38;73.57;;;30.60;;
23782;SDS011;12071;50.850;4.446;2023-11-21T09:16:04;64.05;;;29.70;;
23782;SDS011;12071;50.850;4.446;2023-11-21T09:18:30;66.75;;;29.58;;
23782;SDS011;12071;50.850;4.446;2023-11-21T09:20:56;76.70;;;31.20;;
23782;SDS011;12071;50.850;4.446;2023-11-21T09:23:22;69.75;;;31.27;;
23782;SDS011;12071;50.850;4.446;2023-11-21T09:25:47;76.13;;;30.48;;
23782;SDS011;12071;50.850;4.446;2023-11-21T09:28:15;77.05;;;29.58;;
23782;SDS011;12071;50.850;4.446;2023-11-21T09:30:42;72.90;;;30.63;;
23782;SDS011;12071;50.850;4.446;2023-11-21T09:33:08;74.72;;;30.33;;
23782;SDS011;12071;50.850;4.446;2023-11-21T09:35:37;66.68;;;28.80;;
23782;SDS011;12071;50.850;4.446;2023-11-21T09:38:03;72.93;;;28.23;;
23782;SDS011;12071;50.850;4.446;2023-11-21T09:40:35;68.25;;;29.17;;
23782;SDS011;12071;50.850;4.446;2023-11-21T09:43:02;65.65;;;29.27;;
23782;SDS011;12071;50.850;4.446;2023-11-21T09:45:34;69.30;;;28.37;;
23782;SDS011;12071;50.850;4.446;2023-11-21T09:48:01;59.67;;;27.80;;
23782;SDS011;12071;50.850;4.446;2023-11-21T09:50:27;65.63;;;26.90;;
23782;SDS011;12071;50.850;4.446;2023-11-21T09:53:12;63.65;;;28.73;;
23782;SDS011;12071;50.850;4.446;2023-11-21T09:55:42;64.93;;;27.73;;
23782;SDS011;12071;50.850;4.446;2023-11-21T09:58:09;66.47;;;28.25;;
23782;SDS011;12071;50.850;4.446;2023-11-21T10:00:39;60.88;;;27.05;;
23782;SDS011;12071;50.850;4.446;2023-11-21T10:03:10;67.22;;;28.05;;
23782;SDS011;12071;50.850;4.446;2023-11-21T10:05:36;56.17;;;23.98;;
23782;SDS011;12071;50.850;4.446;2023-11-21T10:08:09;58.63;;;25.08;;
23782;SDS011;12071;50.850;4.446;2023-11-21T10:10:36;50.90;;;24.55;;
23782;SDS011;12071;50.850;4.446;2023-11-21T10:13:04;52.05;;;24.00;;
23782;SDS011;12071;50.850;4.446;2023-11-21T10:15:33;44.30;;;21.08;;
23782;SDS011;12071;50.850;4.446;2023-11-21T10:18:00;36.38;;;21.23;;
23782;SDS011;12071;50.850;4.446;2023-11-21T10:20:32;37.78;;;21.80;;
23782;SDS011;12071;50.850;4.446;2023-11-21T10:23:03;38.58;;;22.30;;
23782;SDS011;12071;50.850;4.446;2023-11-21T10:25:32;38.17;;;21.33;;
23782;SDS011;12071;50.850;4.446;2023-11-21T10:27:58;33.53;;;21.00;;
23782;SDS011;12071;50.850;4.446;2023-11-21T10:30:33;40.05;;;22.27;;
23782;SDS011;12071;50.850;4.446;2023-11-21T10:33:03;34.92;;;21.08;;
23782;SDS011;12071;50.850;4.446;2023-11-21T10:38:20;33.67;;;21.17;;
23782;SDS011;12071;50.850;4.446;2023-11-21T10:40:48;31.23;;;19.92;;
23782;SDS011;12071;50.850;4.446;2023-11-21T10:43:14;31.17;;;20.38;;
23782;SDS011;12071;50.850;4.446;2023-11-21T10:45:41;33.30;;;21.45;;
23782;SDS011;12071;50.850;4.446;2023-11-21T10:48:12;40.35;;;25.70;;
23782;SDS011;12071;50.850;4.446;2023-11-21T10:50:45;36.65;;;23.33;;
23782;SDS011;12071;50.850;4.446;2023-11-21T10:53:12;36.13;;;22.42;;
23782;SDS011;12071;50.850;4.446;2023-11-21T10:55:38;36.78;;;22.80;;
23782;SDS011;12071;50.850;4.446;2023-11-21T10:58:04;35.78;;;21.45;;
23782;SDS011;12071;50.850;4.446;2023-11-21T11:00:31;32.35;;;20.30;;
23782;SDS011;12071;50.850;4.446;2023-11-21T11:02:58;34.72;;;20.85;;
23782;SDS011;12071;50.850;4.446;2023-11-21T11:05:28;30.10;;;20.00;;
23782;SDS011;12071;50.850;4.446;2023-11-21T11:07:58;31.90;;;19.65;;
23782;SDS011;12071;50.850;4.446;2023-11-21T11:10:28;27.17;;;17.90;;
23782;SDS011;12071;50.850;4.446;2023-11-21T11:12:57;30.17;;;18.95;;
23782;SDS011;12071;50.850;4.446;2023-11-21T11:15:23;30.58;;;18.70;;
23782;SDS011;12071;50.850;4.446;2023-11-21T11:17:50;30.33;;;18.50;;
23782;SDS011;12071;50.850;4.446;2023-11-21T11:20:16;34.92;;;18.92;;
23782;SDS011;12071;50.850;4.446;2023-11-21T11:28:10;33.40;;;20.63;;
23782;SDS011;12071;50.850;4.446;2023-11-21T11:33:26;36.40;;;22.13;;
23782;SDS011;12071;50.850;4.446;2023-11-21T11:36:10;41.05;;;23.75;;
23782;SDS011;12071;50.850;4.446;2023-11-21T11:38:47;37.88;;;22.77;;
23782;SDS011;12071;50.850;4.446;2023-11-21T11:41:24;38.30;;;23.90;;
23782;SDS011;12071;50.850;4.446;2023-11-21T11:44:00;39.10;;;23.85;;
23782;SDS011;12071;50.850;4.446;2023-11-21T11:46:42;40.28;;;23.60;;
23782;SDS011;12071;50.850;4.446;2023-11-21T11:49:11;37.78;;;23.42;;
23782;SDS011;12071;50.850;4.446;2023-11-21T11:52:31;37.97;;;22.75;;
23782;SDS011;12071;50.850;4.446;2023-11-21T11:54:54;33.60;;;20.88;;
23782;SDS011;12071;50.850;4.446;2023-11-21T11:57:23;32.85;;;21.00;;
23782;SDS011;12071;50.850;4.446;2023-11-21T12:00:08;35.15;;;21.33;;
23782;SDS011;12071;50.850;4.446;2023-11-21T12:03:08;39.63;;;22.55;;
23782;SDS011;12071;50.850;4.446;2023-11-21T12:05:35;36.30;;;22.83;;
23782;SDS011;12071;50.850;4.446;2023-11-21T12:08:04;41.17;;;23.60;;
23782;SDS011;12071;50.850;4.446;2023-11-21T12:10:32;33.38;;;22.98;;
23782;SDS011;12071;50.850;4.446;2023-11-21T12:13:00;31.50;;;20.13;;
23782;SDS011;12071;50.850;4.446;2023-11-21T12:15:27;28.88;;;20.00;;
23782;SDS011;12071;50.850;4.446;2023-11-21T12:17:56;28.50;;;20.27;;
23782;SDS011;12071;50.850;4.446;2023-11-21T12:20:24;24.45;;;18.30;;
23782;SDS011;12071;50.850;4.446;2023-11-21T12:22:51;25.85;;;19.05;;
23782;SDS011;12071;50.850;4.446;2023-11-21T12:25:19;25.38;;;18.45;;
23782;SDS011;12071;50.850;4.446;2023-11-21T12:27:48;24.75;;;17.40;;
23782;SDS011;12071;50.850;4.446;2023-11-21T12:30:15;24.33;;;18.13;;
23782;SDS011;12071;50.850;4.446;2023-11-21T12:32:45;23.65;;;17.15;;
23782;SDS011;12071;50.850;4.446;2023-11-21T12:35:14;24.20;;;17.33;;
23782;SDS011;12071;50.850;4.446;2023-11-21T12:37:41;24.35;;;17.40;;
23782;SDS011;12071;50.850;4.446;2023-11-21T12:40:10;28.95;;;17.23;;
23782;SDS011;12071;50.850;4.446;2023-11-21T12:42:43;22.42;;;17.17;;
23782;SDS011;12071;50.850;4.446;2023-11-21T12:45:19;26.30;;;18.65;;
23782;SDS011;12071;50.850;4.446;2023-11-21T12:47:47;22.83;;;16.58;;
23782;SDS011;12071;50.850;4.446;2023-11-21T12:50:20;23.73;;;15.70;;
23782;SDS011;12071;50.850;4.446;2023-11-21T12:52:48;20.77;;;15.98;;
23782;SDS011;12071;50.850;4.446;2023-11-21T12:55:21;21.25;;;15.20;;
23782;SDS011;12071;50.850;4.446;2023-11-21T12:57:49;21.35;;;14.93;;
23782;SDS011;12071;50.850;4.446;2023-11-21T13:00:17;18.40;;;14.15;;
23782;SDS011;12071;50.850;4.446;2023-11-21T13:02:56;19.30;;;13.77;;
23782;SDS011;12071;50.850;4.446;2023-11-21T13:05:27;18.02;;;13.00;;
23782;SDS011;12071;50.850;4.446;2023-11-21T13:07:58;15.93;;;12.68;;
23782;SDS011;12071;50.850;4.446;2023-11-21T13:10:27;14.40;;;12.00;;
23782;SDS011;12071;50.850;4.446;2023-11-21T13:12:56;18.35;;;12.98;;
23782;SDS011;12071;50.850;4.446;2023-11-21T13:15:25;16.63;;;12.93;;
23782;SDS011;12071;50.850;4.446;2023-11-21T13:17:56;20.05;;;14.00;;
23782;SDS011;12071;50.850;4.446;2023-11-21T13:20:23;16.38;;;13.50;;
23782;SDS011;12071;50.850;4.446;2023-11-21T13:22:50;17.98;;;14.52;;
23782;SDS011;12071;50.850;4.446;2023-11-21T13:25:23;19.67;;;14.35;;
23782;SDS011;12071;50.850;4.446;2023-11-21T13:27:49;17.92;;;14.95;;
23782;SDS011;12071;50.850;4.446;2023-11-21T13:30:16;20.05;;;15.65;;
23782;SDS011;12071;50.850;4.446;2023-11-21T13:32:43;17.73;;;15.43;;
23782;SDS011;12071;50.850;4.446;2023-11-21T13:35:11;23.25;;;15.93;;
23782;SDS011;12071;50.850;4.446;2023-11-21T13:37:48;19.05;;;15.30;;
23782;SDS011;12071;50.850;4.446;2023-11-21T13:40:20;18.52;;;14.70;;
23782;SDS011;12071;50.850;4.446;2023-11-21T13:42:54;18.73;;;14.13;;
23782;SDS011;12071;50.850;4.446;2023-11-21T13:45:23;16.85;;;14.70;;
23782;SDS011;12071;50.850;4.446;2023-11-21T13:47:51;18.40;;;14.02;;
23782;SDS011;12071;50.850;4.446;2023-11-21T13:50:23;19.60;;;12.75;;
23782;SDS011;12071;50.850;4.446;2023-11-21T13:52:58;17.17;;;12.90;;
23782;SDS011;12071;50.850;4.446;2023-11-21T13:55:29;16.50;;;12.15;;
23782;SDS011;12071;50.850;4.446;2023-11-21T13:57:55;11.68;;;8.93;;
23782;SDS011;12071;50.850;4.446;2023-11-21T14:00:21;11.93;;;8.77;;
23782;SDS011;12071;50.850;4.446;2023-11-21T14:03:05;14.68;;;9.50;;
23782;SDS011;12071;50.850;4.446;2023-11-21T14:05:36;13.45;;;8.63;;
23782;SDS011;12071;50.850;4.446;2023-11-21T14:08:01;9.88;;;8.50;;
23782;SDS011;12071;50.850;4.446;2023-11-21T14:10:30;12.68;;;8.57;;
23782;SDS011;12071;50.850;4.446;2023-11-21T14:13:05;11.93;;;7.05;;
23782;SDS011;12071;50.850;4.446;2023-11-21T14:15:31;17.58;;;7.90;;
23782;SDS011;12071;50.850;4.446;2023-11-21T14:18:02;9.23;;;6.88;;
23782;SDS011;12071;50.850;4.446;2023-11-21T14:20:33;6.00;;;5.10;;
23782;SDS011;12071;50.850;4.446;2023-11-21T14:23:01;6.10;;;4.70;;
23782;SDS011;12071;50.850;4.446;2023-11-21T14:25:26;6.93;;;4.22;;
23782;SDS011;12071;50.850;4.446;2023-11-21T14:27:53;7.80;;;4.10;;
23782;SDS011;12071;50.850;4.446;2023-11-21T14:30:18;9.35;;;3.75;;
23782;SDS011;12071;50.850;4.446;2023-11-21T14:32:47;5.47;;;3.28;;
23782;SDS011;12071;50.850;4.446;2023-11-21T14:35:13;6.10;;;3.38;;
23782;SDS011;12071;50.850;4.446;2023-11-21T14:37:40;7.47;;;3.40;;
23782;SDS011;12071;50.850;4.446;2023-11-21T14:40:06;3.47;;;3.10;;